Time;durP1;ratioP1;P1;durP2;ratioP2;P2;SDS_P1;SDS_P2;PMS_P1;PMS_P2;Temp;Humidity;BMP_temperature;BMP_pressure;BME280_temperature;BME280_humidity;BME280_pressure;Samples;Min_cycle;Max_cycle;Signal;HPM_P1;HPM_P2
2022/01/07 00:01:11;;;;;;;10.80;4.00;;;3.70;99.90;;;;;;5087303;28;20483;-83
2022/01/07 00:03:38;;;;;;;9.43;3.67;;;3.70;99.90;;;;;;5076624;28;20490;-83
2022/01/07 00:06:05;;;;;;;6.53;3.13;;;3.70;99.90;;;;;;5090031;28;20448;-84
2022/01/07 00:08:32;;;;;;;8.53;3.30;;;3.70;99.90;;;;;;5090505;28;20485;-83
2022/01/07 00:10:58;;;;;;;5.70;3.50;;;3.70;99.90;;;;;;5079806;28;20484;-85
2022/01/07 00:13:27;;;;;;;8.37;3.07;;;3.70;99.90;;;;;;5071275;28;20961;-85
2022/01/07 00:15:54;;;;;;;8.30;3.37;;;3.70;99.90;;;;;;5071670;28;20432;-84
2022/01/07 00:18:20;;;;;;;10.90;4.57;;;3.70;99.90;;;;;;5082841;28;20477;-83
2022/01/07 00:20:48;;;;;;;9.50;3.77;;;3.70;99.90;;;;;;5090360;28;20510;-81
2022/01/07 00:23:15;;;;;;;10.83;3.50;;;3.80;99.90;;;;;;5091907;28;20460;-83
2022/01/07 00:25:41;;;;;;;6.73;3.00;;;3.70;99.90;;;;;;5090258;28;20469;-83
2022/01/07 00:28:08;;;;;;;6.00;3.60;;;3.80;99.90;;;;;;5091123;28;20513;-83
2022/01/07 00:30:37;;;;;;;10.00;3.57;;;3.70;99.90;;;;;;5089314;28;20458;-85
2022/01/07 00:33:04;;;;;;;10.50;3.77;;;3.80;99.90;;;;;;5089684;28;20447;-83
2022/01/07 00:35:31;;;;;;;10.60;3.67;;;3.70;99.90;;;;;;5073310;28;20539;-84
2022/01/07 00:37:58;;;;;;;7.53;3.00;;;3.70;99.90;;;;;;5069582;28;20480;-84
2022/01/07 00:40:25;;;;;;;7.70;2.87;;;3.80;99.90;;;;;;5078446;28;20489;-83
2022/01/07 00:42:53;;;;;;;7.53;3.50;;;3.80;99.90;;;;;;5088998;28;20493;-84
2022/01/07 00:45:22;;;;;;;7.90;3.47;;;3.80;99.90;;;;;;5072137;28;20531;-83
2022/01/07 00:47:51;;;;;;;7.23;3.43;;;3.80;99.90;;;;;;5069225;28;20551;-84
2022/01/07 00:50:19;;;;;;;10.37;4.63;;;3.80;99.90;;;;;;5070565;28;20523;-84
2022/01/07 00:52:46;;;;;;;8.80;3.90;;;3.80;99.90;;;;;;5070538;28;20466;-84
2022/01/07 00:55:13;;;;;;;8.93;4.00;;;3.90;99.90;;;;;;5069887;28;20887;-83
2022/01/07 00:57:42;;;;;;;8.30;3.40;;;3.90;99.90;;;;;;5085800;28;20477;-84
2022/01/07 01:00:11;;;;;;;7.67;3.40;;;3.90;99.90;;;;;;5073953;28;20539;-85
2022/01/07 01:02:38;;;;;;;12.30;4.10;;;3.90;99.90;;;;;;5069558;28;20889;-83
2022/01/07 01:05:08;;;;;;;8.73;3.63;;;3.90;99.90;;;;;;5076089;28;20451;-84
2022/01/07 01:07:35;;;;;;;6.83;2.90;;;3.90;99.90;;;;;;5088103;28;20506;-82
2022/01/07 01:10:06;;;;;;;9.30;4.33;;;3.80;99.90;;;;;;5090101;28;20451;-83
2022/01/07 01:12:34;;;;;;;17.00;4.03;;;3.80;99.90;;;;;;5081766;28;20470;-84
2022/01/07 01:15:01;;;;;;;11.70;3.63;;;3.80;99.90;;;;;;5069683;28;20538;-83
2022/01/07 01:17:28;;;;;;;5.47;3.40;;;3.80;99.90;;;;;;5085249;28;20444;-83
2022/01/07 01:19:55;;;;;;;12.43;3.40;;;3.80;99.90;;;;;;5084955;28;20451;-82
2022/01/07 01:22:23;;;;;;;5.60;3.30;;;3.80;99.90;;;;;;5086448;28;20479;-83
2022/01/07 01:24:50;;;;;;;8.10;3.80;;;3.90;99.90;;;;;;5075211;28;20444;-83
2022/01/07 01:27:17;;;;;;;6.47;3.33;;;3.90;99.90;;;;;;5081546;28;20566;-84
2022/01/07 01:29:44;;;;;;;4.97;2.90;;;3.90;99.90;;;;;;5087937;28;20453;-84
2022/01/07 01:32:11;;;;;;;6.90;2.87;;;3.90;99.90;;;;;;5079896;28;20523;-85
2022/01/07 01:34:38;;;;;;;7.70;4.33;;;3.90;99.90;;;;;;5075453;28;20446;-82
2022/01/07 01:37:05;;;;;;;5.70;3.07;;;3.90;99.90;;;;;;5072384;28;20447;-83
2022/01/07 01:39:33;;;;;;;11.57;3.50;;;3.90;99.90;;;;;;5088099;28;20475;-83
2022/01/07 01:42:00;;;;;;;12.23;4.30;;;4.00;99.90;;;;;;5068661;28;21103;-83
2022/01/07 01:44:27;;;;;;;5.83;3.63;;;4.00;99.90;;;;;;5069325;28;20451;-82
2022/01/07 01:46:54;;;;;;;8.40;3.50;;;3.90;99.90;;;;;;5084733;28;20451;-81
2022/01/07 01:49:21;;;;;;;11.27;3.60;;;4.00;99.90;;;;;;5071780;28;20848;-83
2022/01/07 01:51:48;;;;;;;8.57;3.30;;;3.90;99.90;;;;;;5062894;28;20448;-81
2022/01/07 01:54:15;;;;;;;9.80;3.70;;;4.00;99.90;;;;;;5064831;28;20524;-81
2022/01/07 01:56:44;;;;;;;9.93;3.70;;;3.90;99.90;;;;;;5075838;28;20818;-82
2022/01/07 01:59:11;;;;;;;8.00;3.60;;;3.90;99.90;;;;;;5074357;28;20467;-82
2022/01/07 02:01:40;;;;;;;6.83;3.53;;;4.00;99.90;;;;;;5063716;28;20487;-83
2022/01/07 02:04:07;;;;;;;9.53;3.50;;;4.00;99.90;;;;;;5072006;28;21003;-82
2022/01/07 02:06:36;;;;;;;9.33;3.60;;;4.00;99.90;;;;;;5085610;28;20451;-83
2022/01/07 02:09:03;;;;;;;17.43;3.67;;;4.00;99.90;;;;;;5078371;28;20474;-80
2022/01/07 02:11:31;;;;;;;7.83;3.40;;;4.00;99.90;;;;;;5076291;28;20475;-83
2022/01/07 02:13:59;;;;;;;6.13;3.30;;;4.00;99.90;;;;;;5083065;28;20451;-83
2022/01/07 02:16:26;;;;;;;7.73;3.80;;;4.10;99.90;;;;;;5065260;28;20515;-81
2022/01/07 02:18:53;;;;;;;9.23;4.10;;;4.00;99.90;;;;;;5056108;28;20494;-81
2022/01/07 02:21:22;;;;;;;9.50;4.33;;;4.00;99.90;;;;;;5058535;28;21037;-80
2022/01/07 02:23:48;;;;;;;12.73;3.70;;;3.90;99.90;;;;;;5060373;28;20456;-82
2022/01/07 02:26:15;;;;;;;8.20;3.40;;;4.00;99.90;;;;;;5078415;28;20458;-81
2022/01/07 02:28:42;;;;;;;6.77;3.50;;;4.00;99.90;;;;;;5073662;28;20476;-81
2022/01/07 02:31:09;;;;;;;9.37;4.20;;;4.00;99.90;;;;;;5059294;28;20828;-81
2022/01/07 02:33:36;;;;;;;8.50;3.90;;;4.00;99.90;;;;;;5059621;28;20450;-80
2022/01/07 02:36:07;;;;;;;10.00;3.40;;;4.00;99.90;;;;;;5059124;28;20820;-80
2022/01/07 02:38:36;;;;;;;9.23;3.73;;;4.00;99.90;;;;;;5060395;28;20483;-81
2022/01/07 02:41:03;;;;;;;8.87;3.77;;;3.90;99.90;;;;;;5076239;28;20454;-80
2022/01/07 02:43:31;;;;;;;6.87;3.43;;;3.90;99.90;;;;;;5077491;28;20489;-80
2022/01/07 02:45:58;;;;;;;10.17;3.60;;;3.90;99.90;;;;;;5060141;28;20454;-81
2022/01/07 02:48:25;;;;;;;8.33;4.17;;;3.90;99.90;;;;;;5060717;28;20471;-82
2022/01/07 02:50:52;;;;;;;7.40;2.93;;;3.90;99.90;;;;;;5057604;28;20460;-79
2022/01/07 02:53:18;;;;;;;7.23;3.63;;;3.80;99.90;;;;;;5077439;28;20460;-80
2022/01/07 02:55:46;;;;;;;8.20;4.00;;;3.70;99.90;;;;;;5082774;28;20451;-82
2022/01/07 02:58:13;;;;;;;6.50;4.53;;;3.70;99.90;;;;;;5063658;28;20467;-82
2022/01/07 03:00:40;;;;;;;7.00;3.90;;;3.60;99.90;;;;;;5061397;28;20538;-81
2022/01/07 03:03:08;;;;;;;13.17;4.40;;;3.40;99.90;;;;;;5063100;28;20505;-80
2022/01/07 03:05:35;;;;;;;7.50;4.40;;;3.40;99.90;;;;;;5063448;28;20452;-81
2022/01/07 03:08:02;;;;;;;5.93;4.10;;;3.30;99.90;;;;;;5072887;28;20522;-80
2022/01/07 03:10:30;;;;;;;7.93;3.87;;;3.20;99.90;;;;;;5078697;28;20461;-80
2022/01/07 03:13:00;;;;;;;8.00;4.70;;;3.20;99.90;;;;;;5066479;28;20442;-80
2022/01/07 03:15:28;;;;;;;7.07;4.00;;;3.20;99.90;;;;;;5063169;28;20430;-81
2022/01/07 03:17:54;;;;;;;6.13;4.27;;;3.10;99.90;;;;;;5063096;28;20470;-81
2022/01/07 03:20:22;;;;;;;11.93;4.90;;;3.10;99.90;;;;;;5058530;28;20446;-80
2022/01/07 03:22:49;;;;;;;8.60;4.37;;;3.10;99.90;;;;;;5082130;28;20490;-82
2022/01/07 03:25:18;;;;;;;9.50;4.70;;;3.10;99.90;;;;;;5063098;28;20463;-80
2022/01/07 03:27:45;;;;;;;14.20;4.43;;;3.00;99.90;;;;;;5076948;28;20466;-80
2022/01/07 03:30:15;;;;;;;8.93;5.30;;;3.00;99.90;;;;;;5082824;28;20454;-80
2022/01/07 03:32:42;;;;;;;11.17;5.80;;;3.00;99.90;;;;;;5069154;28;20470;-80
2022/01/07 03:35:11;;;;;;;15.40;4.87;;;3.00;99.90;;;;;;5062476;28;20444;-81
2022/01/07 03:37:38;;;;;;;9.37;4.57;;;3.00;99.90;;;;;;5070316;28;20861;-81
2022/01/07 03:40:06;;;;;;;7.67;4.73;;;2.90;99.90;;;;;;5082757;28;20455;-80
2022/01/07 03:42:33;;;;;;;9.27;4.93;;;2.90;99.90;;;;;;5080987;28;20489;-78
2022/01/07 03:45:00;;;;;;;6.53;4.40;;;2.90;99.90;;;;;;5082394;28;20455;-78
2022/01/07 03:47:29;;;;;;;9.50;5.20;;;2.90;99.90;;;;;;5063467;28;21102;-77
2022/01/07 03:49:55;;;;;;;7.47;4.90;;;2.80;99.90;;;;;;5060323;28;20452;-79
2022/01/07 03:52:22;;;;;;;11.13;5.30;;;2.90;99.90;;;;;;5078251;28;20510;-80
2022/01/07 03:54:50;;;;;;;9.07;5.47;;;2.90;99.90;;;;;;5072754;28;20455;-80
2022/01/07 03:57:17;;;;;;;9.90;5.77;;;2.80;99.90;;;;;;5081185;28;20451;-79
2022/01/07 03:59:44;;;;;;;9.10;4.60;;;2.80;99.90;;;;;;5080428;28;20464;-80
2022/01/07 04:02:11;;;;;;;9.30;4.43;;;2.80;99.90;;;;;;5079052;28;20490;-80
2022/01/07 04:04:40;;;;;;;11.70;5.03;;;2.90;99.90;;;;;;5069258;28;20981;-80
2022/01/07 04:07:06;;;;;;;10.00;5.27;;;2.90;99.90;;;;;;5059504;28;20432;-80
2022/01/07 04:09:33;;;;;;;7.70;4.97;;;2.80;99.90;;;;;;5071369;28;20481;-80
2022/01/07 04:12:00;;;;;;;9.17;4.57;;;2.90;99.90;;;;;;5076192;28;20478;-79
2022/01/07 04:14:27;;;;;;;9.80;4.67;;;2.80;99.90;;;;;;5076431;28;20479;-79
2022/01/07 04:16:55;;;;;;;7.25;4.85;;;2.80;99.90;;;;;;5077738;28;20461;-80
2022/01/07 04:19:23;;;;;;;9.93;4.50;;;2.80;99.90;;;;;;5064650;28;20312;-79
2022/01/07 04:21:51;;;;;;;10.23;4.53;;;2.80;99.90;;;;;;5056713;28;20213;-80
2022/01/07 04:24:18;;;;;;;9.13;5.50;;;2.70;99.90;;;;;;5056117;28;20228;-79
2022/01/07 04:26:46;;;;;;;9.43;4.40;;;2.80;99.90;;;;;;5058110;28;20811;-82
2022/01/07 04:29:13;;;;;;;6.47;5.23;;;2.80;99.90;;;;;;5061118;28;20478;-81
2022/01/07 04:31:39;;;;;;;7.22;5.05;;;2.80;99.90;;;;;;5071440;28;20451;-80
2022/01/07 04:34:06;;;;;;;7.57;4.90;;;2.80;99.90;;;;;;5080045;28;20193;-78
2022/01/07 04:36:33;;;;;;;13.10;5.13;;;2.90;99.90;;;;;;5078904;28;20451;-80
2022/01/07 04:39:02;;;;;;;5.13;3.70;;;2.90;99.90;;;;;;5074949;28;20477;-80
2022/01/07 04:41:28;;;;;;;13.03;5.43;;;2.90;99.90;;;;;;5067634;28;20543;-80
2022/01/07 04:43:55;;;;;;;9.23;4.23;;;2.90;99.90;;;;;;5062855;28;20486;-79
2022/01/07 04:46:22;;;;;;;9.93;4.73;;;2.90;99.90;;;;;;5076785;28;20458;-79
2022/01/07 04:48:49;;;;;;;11.90;4.00;;;2.90;99.90;;;;;;5078892;28;20471;-79
2022/01/07 04:51:15;;;;;;;7.23;4.40;;;2.90;99.90;;;;;;5073075;28;20463;-82
2022/01/07 04:53:42;;;;;;;6.40;4.27;;;2.90;99.90;;;;;;5058335;28;20468;-79
2022/01/07 04:56:10;;;;;;;10.03;4.73;;;2.90;99.90;;;;;;5070577;28;20457;-80
2022/01/07 04:58:37;;;;;;;6.90;4.20;;;2.90;99.90;;;;;;5078625;28;20477;-80
2022/01/07 05:01:04;;;;;;;7.90;3.87;;;2.90;99.90;;;;;;5064496;28;20448;-80
2022/01/07 05:03:31;;;;;;;12.47;3.70;;;3.00;99.90;;;;;;5059317;28;21015;-81
2022/01/07 05:06:10;;;;;;;6.17;4.00;;;3.00;99.90;;;;;;5075226;28;20545;-82
2022/01/07 05:08:37;;;;;;;10.33;3.97;;;3.00;99.90;;;;;;5076292;28;20562;-81
2022/01/07 05:11:04;;;;;;;7.00;3.10;;;3.10;99.90;;;;;;5075140;28;20447;-80
2022/01/07 05:13:32;;;;;;;7.33;3.10;;;4.00;99.90;;;;;;5080385;28;20452;-83
2022/01/07 05:15:59;;;;;;;6.13;3.53;;;4.60;99.90;;;;;;5079331;28;20442;-83
2022/01/07 05:18:26;;;;;;;5.60;2.97;;;4.50;99.90;;;;;;5078662;28;20477;-80
2022/01/07 05:20:52;;;;;;;9.47;3.83;;;3.90;99.90;;;;;;5068868;28;20525;-81
2022/01/07 05:23:19;;;;;;;6.47;2.47;;;3.90;99.90;;;;;;5060632;28;20559;-81
2022/01/07 05:25:46;;;;;;;7.10;3.07;;;3.70;99.90;;;;;;5059331;28;20459;-81
2022/01/07 05:28:13;;;;;;;7.93;3.40;;;5.90;99.90;;;;;;5062370;28;20469;-81
2022/01/07 05:30:41;;;;;;;5.50;2.80;;;3.50;99.90;;;;;;5076784;28;20494;-81
2022/01/07 05:33:08;;;;;;;8.40;3.93;;;3.50;99.90;;;;;;5060003;28;20458;-82
2022/01/07 05:35:35;;;;;;;5.10;3.77;;;3.40;99.90;;;;;;5057614;28;20451;-82
2022/01/07 05:38:02;;;;;;;7.00;3.20;;;3.30;99.90;;;;;;5058251;28;20472;-82
2022/01/07 05:40:29;;;;;;;5.00;2.80;;;4.60;99.90;;;;;;5057238;28;20459;-82
2022/01/07 05:42:55;;;;;;;7.50;4.43;;;3.30;99.90;;;;;;5057473;28;20494;-82
2022/01/07 05:45:22;;;;;;;6.67;3.07;;;3.20;99.90;;;;;;5058643;28;20450;-82
2022/01/07 05:47:50;;;;;;;8.00;3.00;;;3.10;99.90;;;;;;5058897;28;20472;-82
2022/01/07 05:50:17;;;;;;;6.30;3.60;;;3.10;99.90;;;;;;5078135;28;20458;-82
2022/01/07 05:52:44;;;;;;;8.10;4.37;;;3.00;99.90;;;;;;5074416;28;20448;-82
2022/01/07 05:55:11;;;;;;;5.80;3.33;;;2.90;99.90;;;;;;5074520;28;20455;-82
2022/01/07 05:57:38;;;;;;;5.53;3.40;;;2.90;99.90;;;;;;5076022;28;20470;-82
2022/01/07 06:00:07;;;;;;;12.40;3.57;;;2.90;99.90;;;;;;5077968;28;20883;-82
2022/01/07 06:02:34;;;;;;;10.43;3.90;;;2.90;99.90;;;;;;5070512;28;20447;-83
2022/01/07 06:05:02;;;;;;;9.50;3.97;;;2.90;99.90;;;;;;5059506;28;20514;-83
2022/01/07 06:07:29;;;;;;;7.40;3.93;;;2.80;99.90;;;;;;5062558;28;20475;-82
2022/01/07 06:09:56;;;;;;;7.80;4.07;;;2.80;99.90;;;;;;5066131;28;20474;-82
2022/01/07 06:12:23;;;;;;;8.30;4.60;;;;;;;;;;5065427;28;20525;-82
2022/01/07 06:14:50;;;;;;;8.10;3.77;;;2.80;99.90;;;;;;5073521;28;20463;-82
2022/01/07 06:17:18;;;;;;;9.03;3.57;;;2.70;99.90;;;;;;5076240;28;20474;-82
2022/01/07 06:19:45;;;;;;;5.77;4.47;;;2.60;99.90;;;;;;5050981;28;20459;-82
2022/01/07 06:22:13;;;;;;;6.68;4.30;;;2.60;99.90;;;;;;5059039;28;20577;-82
2022/01/07 06:24:40;;;;;;;5.80;3.93;;;2.60;99.90;;;;;;5067428;28;20225;-83
2022/01/07 06:27:07;;;;;;;8.50;3.80;;;2.50;99.90;;;;;;5070937;28;20960;-82
2022/01/07 06:29:33;;;;;;;11.90;4.50;;;2.60;99.90;;;;;;5066247;28;20482;-83
2022/01/07 06:32:00;;;;;;;8.48;5.03;;;2.60;99.90;;;;;;5062477;28;20455;-83
2022/01/07 06:34:27;;;;;;;8.30;4.33;;;2.60;99.90;;;;;;5073711;28;20661;-83
2022/01/07 06:36:54;;;;;;;7.93;4.27;;;2.60;99.90;;;;;;5074870;28;20465;-84
2022/01/07 06:39:22;;;;;;;6.30;4.50;;;2.70;99.90;;;;;;5063772;28;20470;-84
2022/01/07 06:41:50;;;;;;;6.70;4.57;;;2.60;99.90;;;;;;5071938;28;20462;-82
2022/01/07 06:44:18;;;;;;;8.30;4.10;;;2.60;99.90;;;;;;5072311;28;20486;-83
2022/01/07 06:46:45;;;;;;;7.82;4.47;;;2.70;99.90;;;;;;5056061;28;20454;-83
2022/01/07 06:49:13;;;;;;;4.73;3.30;;;2.70;99.90;;;;;;5075193;28;20383;-84
2022/01/07 06:51:40;;;;;;;9.07;4.75;;;2.70;99.90;;;;;;5058560;28;20449;-83
2022/01/07 06:54:07;;;;;;;7.03;4.30;;;2.80;99.90;;;;;;5075372;28;20205;-82
2022/01/07 06:56:35;;;;;;;11.23;4.03;;;2.70;99.90;;;;;;5057187;28;20466;-82
2022/01/07 06:59:02;;;;;;;6.40;3.88;;;3.30;99.90;;;;;;5059645;28;20476;-83
2022/01/07 07:01:29;;;;;;;5.13;3.90;;;2.70;99.90;;;;;;5052960;28;20214;-80
2022/01/07 07:03:56;;;;;;;5.27;3.70;;;2.70;99.90;;;;;;5054770;28;20504;-82
2022/01/07 07:06:23;;;;;;;6.20;4.32;;;2.80;99.90;;;;;;5059944;28;20455;-82
2022/01/07 07:08:50;;;;;;;7.27;4.37;;;2.80;99.90;;;;;;5068631;28;20225;-82
2022/01/07 07:11:16;;;;;;;12.40;4.73;;;2.80;99.90;;;;;;5074323;28;20459;-82
2022/01/07 07:13:45;;;;;;;7.43;4.10;;;2.80;99.90;;;;;;5057497;28;20459;-84
2022/01/07 07:16:11;;;;;;;8.00;3.87;;;2.80;99.90;;;;;;5070895;28;20455;-81
2022/01/07 07:18:38;;;;;;;7.23;4.10;;;2.80;99.90;;;;;;5053561;28;20476;-83
2022/01/07 07:21:05;;;;;;;8.33;4.17;;;2.90;99.90;;;;;;5052939;28;20940;-82
2022/01/07 07:23:32;;;;;;;5.85;4.68;;;2.90;99.90;;;;;;5060661;28;20577;-83
2022/01/07 07:25:59;;;;;;;7.73;4.53;;;3.00;99.90;;;;;;5068631;28;20201;-82
2022/01/07 07:28:25;;;;;;;10.10;5.40;;;2.90;99.90;;;;;;5065901;28;20539;-82
2022/01/07 07:30:57;;;;;;;8.77;4.67;;;3.20;99.90;;;;;;5062137;28;20457;-81
2022/01/07 07:33:54;;;;;;;8.57;5.20;;;3.00;99.90;;;;;;5062070;28;20513;-82
2022/01/07 07:36:30;;;;;;;6.87;4.17;;;3.00;99.90;;;;;;5063588;28;20546;-81
2022/01/07 07:38:57;;;;;;;6.47;4.63;;;3.10;99.90;;;;;;5064187;28;20522;-82
2022/01/07 07:41:24;;;;;;;8.50;5.83;;;3.10;99.90;;;;;;5061228;28;20452;-82
2022/01/07 07:43:51;;;;;;;12.27;5.50;;;4.10;99.90;;;;;;5064895;28;20481;-82
2022/01/07 07:46:21;;;;;;;7.60;4.87;;;3.20;99.90;;;;;;5063952;28;20455;-82
2022/01/07 07:48:48;;;;;;;8.73;4.63;;;3.20;99.90;;;;;;5065359;28;20834;-82
2022/01/07 07:51:15;;;;;;;5.77;5.10;;;3.30;99.90;;;;;;5064287;28;20454;-83
2022/01/07 07:53:43;;;;;;;5.70;5.00;;;3.30;99.90;;;;;;5067442;28;20443;-83
2022/01/07 07:56:12;;;;;;;6.40;4.10;;;3.30;99.90;;;;;;5068789;28;20522;-81
2022/01/07 07:58:39;;;;;;;12.13;5.43;;;3.40;99.90;;;;;;5065494;28;20479;-80
2022/01/07 08:01:09;;;;;;;5.80;4.10;;;3.40;99.90;;;;;;5063513;28;20867;-80
2022/01/07 08:03:37;;;;;;;11.23;4.43;;;3.30;99.90;;;;;;5063008;28;20480;-80
2022/01/07 08:06:04;;;;;;;10.83;4.73;;;3.50;99.90;;;;;;5063658;28;20883;-79
2022/01/07 08:08:31;;;;;;;8.20;5.03;;;3.50;99.90;;;;;;5066899;28;20472;-80
2022/01/07 08:11:04;;;;;;;7.20;4.83;;;3.50;99.90;;;;;;5065062;28;20496;-81
2022/01/07 08:15:57;;;;;;;8.07;5.10;;;3.50;99.90;;;;;;5066689;28;20493;-81
2022/01/07 08:16:19;;;;;;;7.70;4.57;;;3.50;99.90;;;;;;5066074;28;20446;-79
2022/01/07 08:18:50;;;;;;;7.50;5.27;;;3.50;99.90;;;;;;5070033;28;20482;-82
2022/01/07 08:21:17;;;;;;;5.90;4.20;;;3.50;99.90;;;;;;5064325;28;20963;-81
2022/01/07 08:23:46;;;;;;;14.10;7.10;;;3.50;99.90;;;;;;5066443;28;20478;-82
2022/01/07 08:26:14;;;;;;;7.00;4.57;;;4.10;99.90;;;;;;5063289;28;20538;-82
2022/01/07 08:28:46;;;;;;;8.17;5.13;;;3.60;99.90;;;;;;5063615;28;20472;-80
2022/01/07 08:31:26;;;;;;;8.50;5.00;;;3.70;99.90;;;;;;5064431;28;20465;-83
2022/01/07 08:36:39;;;;;;;6.27;4.57;;;3.70;99.90;;;;;;5075419;28;20450;-81
2022/01/07 08:39:09;;;;;;;6.77;4.30;;;3.70;99.90;;;;;;5058340;28;20460;-80
2022/01/07 08:41:37;;;;;;;5.83;4.47;;;3.80;99.90;;;;;;5055960;28;20462;-83
2022/01/07 08:44:05;;;;;;;9.10;5.33;;;3.90;99.90;;;;;;5079290;28;20845;-81
2022/01/07 08:46:32;;;;;;;6.77;4.77;;;3.80;99.90;;;;;;5078772;28;20491;-81
2022/01/07 08:49:01;;;;;;;9.20;4.03;;;4.40;99.90;;;;;;5072815;28;20475;-83
2022/01/07 08:51:28;;;;;;;8.33;4.47;;;3.80;99.90;;;;;;5076531;28;20456;-81
2022/01/07 08:53:56;;;;;;;7.40;3.73;;;3.80;99.90;;;;;;5060607;28;20452;-81
2022/01/07 08:56:24;;;;;;;7.03;4.07;;;3.90;99.90;;;;;;5061223;28;20896;-82
2022/01/07 08:58:52;;;;;;;13.00;4.30;;;3.90;99.90;;;;;;5075969;28;20483;-83
2022/01/07 09:01:18;;;;;;;8.13;4.83;;;3.90;99.90;;;;;;5060143;28;20448;-83
2022/01/07 09:03:45;;;;;;;6.47;3.93;;;4.80;99.90;;;;;;5062060;28;20575;-82
2022/01/07 09:06:14;;;;;;;5.67;4.07;;;4.00;99.90;;;;;;5062403;28;20452;-83
2022/01/07 09:08:41;;;;;;;6.33;4.20;;;4.10;99.90;;;;;;5060963;28;20482;-83
2022/01/07 09:11:07;;;;;;;5.60;3.20;;;4.20;99.90;;;;;;5068890;28;20489;-82
2022/01/07 09:13:34;;;;;;;6.67;3.87;;;5.80;99.90;;;;;;5058746;28;20452;-83
2022/01/07 09:16:01;;;;;;;4.40;3.50;;;4.30;99.90;;;;;;5071847;28;20522;-82
2022/01/07 09:18:31;;;;;;;5.90;3.70;;;4.30;99.90;;;;;;5068162;28;20510;-83
2022/01/07 09:20:58;;;;;;;6.47;3.90;;;4.40;99.90;;;;;;5058354;28;20471;-81
2022/01/07 09:23:27;;;;;;;9.90;4.00;;;4.50;99.90;;;;;;5061736;28;20459;-83
2022/01/07 09:25:53;;;;;;;3.87;3.07;;;4.60;99.90;;;;;;5075786;28;20457;-82
2022/01/07 09:28:20;;;;;;;6.00;3.60;;;4.60;99.90;;;;;;5073970;28;21050;-82
2022/01/07 09:30:47;;;;;;;4.77;3.27;;;4.60;99.90;;;;;;5055338;28;20446;-84
2022/01/07 09:33:14;;;;;;;10.57;4.20;;;5.30;99.90;;;;;;5064926;28;20459;-84
2022/01/07 09:35:41;;;;;;;9.50;3.53;;;4.70;99.90;;;;;;5077628;28;20492;-83
2022/01/07 09:38:07;;;;;;;3.80;3.33;;;4.80;99.90;;;;;;5077491;28;20546;-84
2022/01/07 09:40:36;;;;;;;4.07;3.23;;;5.80;99.90;;;;;;5077402;28;20534;-83
2022/01/07 09:43:05;;;;;;;4.83;2.83;;;4.70;99.90;;;;;;5072088;28;20438;-81
2022/01/07 09:45:33;;;;;;;6.13;2.77;;;4.70;99.90;;;;;;5076652;28;20487;-81
2022/01/07 09:48:01;;;;;;;6.20;3.30;;;4.70;99.90;;;;;;5070890;28;20557;-82
2022/01/07 09:50:29;;;;;;;8.50;3.47;;;4.70;99.90;;;;;;5062086;28;20947;-82
2022/01/07 09:52:56;;;;;;;6.50;3.13;;;4.70;99.90;;;;;;5076609;28;20467;-82
2022/01/07 09:55:24;;;;;;;4.37;3.20;;;4.70;99.90;;;;;;5075652;28;20444;-82
2022/01/07 09:57:52;;;;;;;4.60;3.07;;;4.70;99.90;;;;;;5058556;28;20457;-83
2022/01/07 10:00:19;;;;;;;4.80;2.90;;;4.70;99.90;;;;;;5060072;28;20540;-83
2022/01/07 10:03:00;;;;;;;7.00;2.87;;;4.80;99.90;;;;;;5058706;28;21005;-83
2022/01/07 10:05:27;;;;;;;5.57;3.40;;;4.80;99.90;;;;;;5072457;28;20488;-82
2022/01/07 10:07:54;;;;;;;7.10;4.20;;;4.70;99.90;;;;;;5055252;28;21192;-83
2022/01/07 10:10:21;;;;;;;3.93;2.90;;;4.80;99.90;;;;;;5055643;28;20441;-82
2022/01/07 10:12:59;;;;;;;4.50;2.60;;;4.70;99.90;;;;;;5068782;28;20462;-82
2022/01/07 10:15:28;;;;;;;6.23;2.50;;;4.70;99.90;;;;;;5062171;28;20454;-82
2022/01/07 10:17:58;;;;;;;6.20;2.60;;;4.70;99.90;;;;;;5074628;28;20549;-82
2022/01/07 10:20:27;;;;;;;8.00;3.17;;;4.70;99.90;;;;;;5075560;28;20443;-82
2022/01/07 10:22:56;;;;;;;6.43;3.23;;;4.70;99.90;;;;;;5071966;28;20451;-82
2022/01/07 10:25:25;;;;;;;5.60;2.87;;;4.70;99.90;;;;;;5057528;28;21003;-83
2022/01/07 10:27:52;;;;;;;4.40;2.77;;;4.70;99.90;;;;;;5073521;28;21061;-81
2022/01/07 10:30:26;;;;;;;3.17;2.60;;;4.80;99.90;;;;;;5065140;28;20455;-84
2022/01/07 10:32:53;;;;;;;4.43;2.93;;;4.80;99.90;;;;;;5043892;28;21729;-82
2022/01/07 10:35:23;;;;;;;5.67;3.40;;;4.80;99.90;;;;;;5064093;28;20929;-83
2022/01/07 10:37:53;;;;;;;6.80;2.60;;;4.90;99.90;;;;;;5065857;28;20900;-81
2022/01/07 10:40:23;;;;;;;3.50;2.40;;;4.90;99.90;;;;;;5059572;28;20458;-81
2022/01/07 10:42:51;;;;;;;4.67;2.97;;;5.10;99.90;;;;;;5055813;28;20465;-81
2022/01/07 10:45:18;;;;;;;3.87;2.40;;;5.10;99.90;;;;;;5060778;28;20479;-82
2022/01/07 10:47:52;;;;;;;7.43;2.73;;;5.20;99.90;;;;;;5065929;28;20477;-80
2022/01/07 10:50:23;;;;;;;5.00;2.73;;;5.20;99.90;;;;;;5058323;28;20755;-81
2022/01/07 10:52:50;;;;;;;3.10;2.23;;;5.30;99.90;;;;;;5065632;28;20447;-82
2022/01/07 10:55:20;;;;;;;4.30;2.53;;;5.30;99.90;;;;;;5066233;28;20524;-82
2022/01/07 10:57:49;;;;;;;3.70;2.33;;;5.30;99.90;;;;;;5073336;28;21524;-81
2022/01/07 11:00:17;;;;;;;12.60;2.97;;;5.20;99.90;;;;;;5060145;28;20461;-82
2022/01/07 11:02:45;;;;;;;5.40;2.13;;;5.20;99.90;;;;;;5057466;28;20471;-82
2022/01/07 11:05:14;;;;;;;4.63;2.23;;;5.20;99.90;;;;;;5072090;28;20491;-81
2022/01/07 11:07:41;;;;;;;3.23;2.40;;;5.20;99.90;;;;;;5077039;28;20451;-82
2022/01/07 11:10:09;;;;;;;3.13;1.80;;;5.10;99.90;;;;;;5064345;28;20467;-80
2022/01/07 11:12:37;;;;;;;4.87;3.10;;;5.20;99.90;;;;;;5073623;28;20466;-80
2022/01/07 11:15:08;;;;;;;5.40;3.23;;;5.30;99.90;;;;;;5066731;28;20864;-81
2022/01/07 11:17:36;;;;;;;5.20;2.20;;;5.30;99.90;;;;;;5067613;28;20444;-82
2022/01/07 11:20:07;;;;;;;7.60;2.60;;;5.40;99.90;;;;;;5064927;28;20541;-80
2022/01/07 11:22:40;;;;;;;5.80;3.83;;;5.40;99.90;;;;;;5072425;28;20470;-82
2022/01/07 11:25:10;;;;;;;7.90;3.20;;;5.40;99.90;;;;;;5078030;28;21136;-81
2022/01/07 11:27:49;;;;;;;6.50;3.07;;;5.50;99.90;;;;;;5068111;28;20559;-82
2022/01/07 11:30:18;;;;;;;3.90;2.37;;;5.60;99.90;;;;;;5069255;28;20462;-80
2022/01/07 11:32:45;;;;;;;5.53;2.70;;;5.60;99.90;;;;;;5075191;28;20458;-80
2022/01/07 11:35:49;;;;;;;5.40;2.60;;;5.70;99.90;;;;;;5072664;28;20451;-81
2022/01/07 11:38:36;;;;;;;4.57;2.57;;;5.60;99.90;;;;;;5062412;28;20497;-81
2022/01/07 11:41:06;;;;;;;3.13;2.20;;;5.70;99.90;;;;;;5061638;28;20499;-81
2022/01/07 11:43:40;;;;;;;2.67;1.97;;;5.70;99.90;;;;;;5062876;28;20975;-81
2022/01/07 11:46:32;;;;;;;3.00;2.20;;;5.80;99.90;;;;;;5070482;28;20491;-80
2022/01/07 11:49:01;;;;;;;5.57;2.70;;;5.60;99.90;;;;;;5065313;28;20982;-81
2022/01/07 11:51:42;;;;;;;5.90;2.20;;;5.60;99.90;;;;;;5071107;28;20531;-80
2022/01/07 11:54:13;;;;;;;4.20;3.33;;;5.70;99.90;;;;;;5068524;28;20476;-81
2022/01/07 11:56:41;;;;;;;3.30;1.77;;;5.80;99.90;;;;;;5063914;28;20462;-80
2022/01/07 11:59:26;;;;;;;2.73;2.07;;;5.90;99.90;;;;;;5078553;28;20463;-80
2022/01/07 12:02:05;;;;;;;4.03;2.43;;;5.90;99.90;;;;;;5056994;28;20465;-79
2022/01/07 12:04:33;;;;;;;4.83;2.20;;;6.00;99.90;;;;;;5064655;28;20503;-80
2022/01/07 12:07:02;;;;;;;5.27;2.13;;;5.90;99.90;;;;;;5058536;28;20464;-80
2022/01/07 12:09:36;;;;;;;3.43;2.23;;;5.90;99.90;;;;;;5059289;28;21024;-80
2022/01/07 12:12:05;;;;;;;5.07;2.23;;;5.90;99.90;;;;;;5058198;28;20451;-80
2022/01/07 12:14:37;;;;;;;4.40;2.50;;;5.80;99.90;;;;;;5060694;28;20530;-81
2022/01/07 12:17:09;;;;;;;4.93;2.37;;;5.90;99.90;;;;;;5057860;28;20950;-80
2022/01/07 12:20:08;;;;;;;3.67;2.60;;;5.80;99.90;;;;;;5058324;28;20471;-82
2022/01/07 12:22:35;;;;;;;9.80;2.97;;;5.70;99.90;;;;;;5072066;28;20450;-79
2022/01/07 12:25:04;;;;;;;4.90;2.57;;;5.80;99.90;;;;;;5076510;28;20519;-80
2022/01/07 12:27:31;;;;;;;3.07;2.07;;;5.90;99.90;;;;;;5075490;28;20451;-79
2022/01/07 12:30:01;;;;;;;3.50;1.97;;;5.80;99.90;;;;;;5077213;28;20452;-80
2022/01/07 12:32:36;;;;;;;7.67;2.80;;;5.80;99.90;;;;;;5075801;28;21080;-83
2022/01/07 12:35:03;;;;;;;4.60;2.40;;;5.90;99.90;;;;;;5092316;28;20486;-81
2022/01/07 12:37:31;;;;;;;4.67;2.27;;;6.00;99.90;;;;;;5075705;28;20209;-84
2022/01/07 12:39:59;;;;;;;4.60;2.30;;;6.10;99.90;;;;;;5067486;28;20456;-83
2022/01/07 12:42:29;;;;;;;5.17;2.73;;;6.00;99.90;;;;;;5062053;28;20537;-81
2022/01/07 12:44:58;;;;;;;5.23;2.50;;;6.10;99.90;;;;;;5075966;28;20577;-80
2022/01/07 12:47:27;;;;;;;3.03;1.97;;;6.00;99.90;;;;;;5062837;28;20946;-82
2022/01/07 12:49:56;;;;;;;4.30;1.70;;;7.60;99.90;;;;;;5061691;28;20465;-79
2022/01/07 12:52:24;;;;;;;3.50;2.00;;;9.00;99.90;;;;;;5058482;28;20452;-83
2022/01/07 12:54:56;;;;;;;2.73;1.40;;;9.40;99.90;;;;;;5058917;28;20467;-80
2022/01/07 12:57:31;;;;;;;4.83;2.20;;;10.00;99.90;;;;;;5061807;28;20443;-79
2022/01/07 13:00:16;;;;;;;5.00;1.77;;;8.70;99.90;;;;;;5063450;28;20445;-80
2022/01/07 13:02:44;;;;;;;4.17;2.27;;;7.80;99.90;;;;;;5064126;28;20978;-80
2022/01/07 13:05:18;;;;;;;3.83;2.30;;;7.50;99.90;;;;;;5061427;28;20864;-81